Perch, North Carolina
Current Conditions -  °F | °C
As of 10:55 AM on Friday 21 Nov 2014 (Local Time) from KMWK Reporting Station
Clear Clear  
Wind Chill: 35°   Ceiling: Unl
Heat Index: 40°   Visibility: 10mi
Dew Point:   Wind: 9mph
Humidity: 25%   Direction: 310°NW
Pressure: 30.44"   Gusts: NA
Location:  36.3244°N, 80.463°W
Report Text: KMWK 211555Z AUTO 31008KT 280V360 10SM CLR 05/M14 A3044 RMK AO2 T00471141
Loading
Personal Weather Stations






























Interactive Weather Map New forecast layout! Learn more

10-Day Weather Forecast

Advertisements
Track Severe Weather on mobile